LFMK/CCF METAR and TAF weather

Enter ICAO airport designator
Station Type Date Time Source
LFMK METAR 2021/09/24 00:30 UTC NOAA

LFMK 240030Z AUTO VRB03KT CAVOK 13/13 Q1020


Station Type Date Time Source
LFMK Decoded METAR 2021/09/24 00:30 UTC NOAA

Carcassonne, France (LFMK) 43-13N 002-19E 130M
Sep 23, 2021 - 08:30 PM EDT / 2021.09.24 0030 UTC
Wind: Variable at 3 MPH (3 KT):0
Visibility: greater than 7 mile(s):0
Temperature: 55 F (13 C)
Dew Point: 55 F (13 C)
Relative Humidity: 100%
Pressure (altimeter): 30.12 in. Hg (1020 hPa)
ob: LFMK 240030Z AUTO VRB03KT CAVOK 13/13 Q1020
cycle: 0

Station Type Date Time Source
LFMK TAF 2021/09/23 18:06 UTC NOAA

TAF TAF LFMK 231800Z 2318/2415 CNL

Example: see airport list